createdAt,value
2022-11-21T00:00:31.716Z,-1.16
2022-11-21T00:03:01.315Z,-1.18
2022-11-21T00:05:28.867Z,-1.18
2022-11-21T00:07:55.799Z,-1.21
2022-11-21T00:10:25.560Z,-1.20
2022-11-21T00:12:56.138Z,-1.15
2022-11-21T00:15:24.371Z,-1.21
2022-11-21T00:17:51.546Z,-1.16
2022-11-21T00:20:20.874Z,-1.13
2022-11-21T00:22:47.844Z,-1.19
2022-11-21T00:25:14.806Z,-1.12
2022-11-21T00:27:41.441Z,-1.12
2022-11-21T00:30:09.562Z,-1.36
2022-11-21T00:32:36.085Z,-1.21
2022-11-21T00:35:02.770Z,-1.16
2022-11-21T00:37:29.310Z,-1.24
2022-11-21T00:39:55.775Z,-1.29
2022-11-21T00:42:29.406Z,-1.27
2022-11-21T00:44:55.892Z,-1.28
2022-11-21T00:47:22.443Z,-1.23
2022-11-21T00:49:48.974Z,-1.18
2022-11-21T00:52:17.093Z,-1.15
2022-11-21T00:54:43.632Z,-1.16
2022-11-21T00:57:10.263Z,-1.19
2022-11-21T00:59:39.360Z,-1.21
2022-11-21T01:02:05.843Z,-1.25
2022-11-21T01:04:35.708Z,-1.25
2022-11-21T01:07:02.364Z,-1.24
2022-11-21T01:09:28.965Z,-1.21
2022-11-21T01:11:56.557Z,-1.21
2022-11-21T01:14:23.814Z,-1.20
2022-11-21T01:16:50.382Z,-1.20
2022-11-21T01:19:19.887Z,-1.15
2022-11-21T01:21:46.363Z,-1.17
2022-11-21T01:24:12.936Z,-1.15
2022-11-21T01:26:39.799Z,-1.13
2022-11-21T01:29:08.798Z,-1.04
2022-11-21T01:31:36.106Z,-0.99
2022-11-21T01:34:02.870Z,-0.99
2022-11-21T01:36:35.876Z,-1.00
2022-11-21T01:39:05.239Z,-0.94
2022-11-21T01:41:43.051Z,-0.95
2022-11-21T01:44:26.567Z,-0.96
2022-11-21T01:46:54.414Z,-0.97
2022-11-21T01:49:29.584Z,-0.99
2022-11-21T01:51:58.875Z,-1.04
2022-11-21T01:54:34.592Z,-1.09
2022-11-21T01:57:07.101Z,-1.17
2022-11-21T02:00:00.121Z,-1.28
2022-11-21T02:02:32.598Z,-1.29
2022-11-21T02:05:02.918Z,-1.29
2022-11-21T02:07:33.304Z,-1.32
2022-11-21T02:10:02.128Z,-1.31
2022-11-21T02:12:32.903Z,-1.28
2022-11-21T02:14:59.497Z,-1.29
2022-11-21T02:17:27.140Z,-1.26
2022-11-21T02:19:56.614Z,-1.21
2022-11-21T02:23:00.497Z,-1.18
2022-11-21T02:25:48.548Z,-1.22
2022-11-21T02:28:16.195Z,-1.15
2022-11-21T02:30:43.789Z,-1.11
2022-11-21T02:33:13.777Z,-1.10
2022-11-21T02:35:41.862Z,-1.03
2022-11-21T02:38:24.007Z,-1.06
2022-11-21T02:40:59.392Z,-1.10
2022-11-21T02:43:30.046Z,-1.13
2022-11-21T02:45:59.226Z,-1.13
2022-11-21T02:48:25.769Z,-1.16
2022-11-21T02:50:52.356Z,-1.18
2022-11-21T02:53:19.148Z,-1.11
2022-11-21T02:55:45.988Z,-1.09
2022-11-21T02:58:13.269Z,-1.15
2022-11-21T03:00:41.571Z,-1.18
2022-11-21T03:03:08.790Z,-1.18
2022-11-21T03:05:35.473Z,-1.21
2022-11-21T03:08:02.540Z,-1.19
2022-11-21T03:10:29.089Z,-1.23
2022-11-21T03:13:01.031Z,-1.20
2022-11-21T03:15:30.201Z,-1.16
2022-11-21T03:17:59.306Z,-1.20
2022-11-21T03:20:27.269Z,-1.23
2022-11-21T03:22:53.913Z,-1.25
2022-11-21T03:25:22.383Z,-1.23
2022-11-21T03:27:57.521Z,-1.28
2022-11-21T03:30:25.512Z,-1.21
2022-11-21T03:32:57.187Z,-1.23
2022-11-21T03:35:25.687Z,-1.21
2022-11-21T03:37:52.227Z,-1.21
2022-11-21T03:40:21.076Z,-1.21
2022-11-21T03:42:47.650Z,-1.28
2022-11-21T03:45:14.657Z,-1.26
2022-11-21T03:47:42.664Z,-1.27
2022-11-21T03:50:10.690Z,-1.24
2022-11-21T03:52:37.174Z,-1.21
2022-11-21T03:55:03.784Z,-1.25
2022-11-21T03:57:30.315Z,-1.23
2022-11-21T03:59:58.237Z,-1.22
2022-11-21T04:02:24.733Z,-1.18
2022-11-21T04:04:51.300Z,-1.16
2022-11-21T04:07:17.875Z,-1.15
2022-11-21T04:09:45.653Z,-1.22
2022-11-21T04:12:12.167Z,-1.17
2022-11-21T04:14:40.938Z,-1.18
2022-11-21T04:17:07.538Z,-1.20
2022-11-21T04:19:34.040Z,-1.20
2022-11-21T04:22:00.950Z,-1.28
2022-11-21T04:24:27.647Z,-1.29
2022-11-21T04:26:55.449Z,-1.26
2022-11-21T04:29:22.202Z,-1.32
2022-11-21T04:31:48.628Z,-1.30
2022-11-21T04:34:15.084Z,-1.31
2022-11-21T04:36:42.856Z,-1.27
2022-11-21T04:39:09.402Z,-1.26
2022-11-21T04:41:38.201Z,-1.26
2022-11-21T04:44:05.746Z,-1.27
2022-11-21T04:46:32.195Z,-1.32
2022-11-21T04:48:58.736Z,-1.31
2022-11-21T04:51:25.202Z,-1.30
2022-11-21T04:53:51.635Z,-1.31
2022-11-21T04:56:18.176Z,-1.31
2022-11-21T04:58:44.968Z,-1.29
2022-11-21T05:01:11.755Z,-1.34
2022-11-21T05:03:38.354Z,-1.32
2022-11-21T05:06:06.952Z,-1.34
2022-11-21T05:08:36.011Z,-1.30
2022-11-21T05:11:20.958Z,-1.32
2022-11-21T05:13:47.671Z,-1.38
2022-11-21T05:16:14.115Z,-1.37
2022-11-21T05:18:40.616Z,-1.36
2022-11-21T05:21:07.109Z,-1.41
2022-11-21T05:23:33.561Z,-1.44
2022-11-21T05:26:00.438Z,-1.48
2022-11-21T05:28:27.172Z,-1.43
2022-11-21T05:30:53.587Z,-1.38
2022-11-21T05:33:20.438Z,-1.37
2022-11-21T05:35:48.180Z,-1.40
2022-11-21T05:38:16.379Z,-1.39
2022-11-21T05:40:43.973Z,-1.33
2022-11-21T05:43:31.066Z,-1.30
2022-11-21T05:45:57.741Z,-1.31
2022-11-21T05:48:26.861Z,-1.29
2022-11-21T05:50:53.333Z,-1.34
2022-11-21T05:53:20.161Z,-1.33
2022-11-21T05:55:46.830Z,-1.31
2022-11-21T05:58:13.648Z,-1.34
2022-11-21T06:00:40.143Z,-1.31
2022-11-21T06:03:25.535Z,-1.37
2022-11-21T06:05:52.443Z,-1.32
2022-11-21T06:08:19.398Z,-1.34
2022-11-21T06:10:46.081Z,-1.42
2022-11-21T06:13:24.462Z,-1.40
2022-11-21T06:15:53.797Z,-1.46
2022-11-21T06:18:21.290Z,-1.45
2022-11-21T06:20:47.855Z,-1.39
2022-11-21T06:23:14.848Z,-1.43
2022-11-21T06:25:42.083Z,-1.42
2022-11-21T06:28:08.634Z,-1.44
2022-11-21T06:30:36.842Z,-1.38
2022-11-21T06:33:22.819Z,-1.33
2022-11-21T06:35:51.091Z,-1.38
2022-11-21T06:38:18.769Z,-1.52
2022-11-21T06:40:45.307Z,-1.53
2022-11-21T06:43:11.862Z,-1.61
2022-11-21T06:45:38.326Z,-1.59
2022-11-21T06:48:04.984Z,-1.54
2022-11-21T06:50:31.617Z,-1.64
2022-11-21T06:52:58.961Z,-1.71
2022-11-21T06:55:30.150Z,-1.71
2022-11-21T06:58:00.247Z,-1.63
2022-11-21T07:00:28.154Z,-1.69
2022-11-21T07:03:01.602Z,-1.72
2022-11-21T07:05:29.834Z,-1.78
2022-11-21T07:08:10.476Z,-1.77
2022-11-21T07:10:57.249Z,-1.77
2022-11-21T07:13:28.830Z,-1.82
2022-11-21T07:16:00.132Z,-1.71
2022-11-21T07:18:26.971Z,-1.73
2022-11-21T07:20:58.305Z,-1.78
2022-11-21T07:23:24.758Z,-1.85
2022-11-21T07:25:51.625Z,-1.89
2022-11-21T07:28:18.267Z,-1.86
2022-11-21T07:30:44.973Z,-1.86
2022-11-21T07:33:14.333Z,-1.72
2022-11-21T07:35:40.885Z,-1.66
2022-11-21T07:38:09.458Z,-1.80
2022-11-21T07:40:38.193Z,-1.82
2022-11-21T07:43:10.686Z,-1.74
2022-11-21T07:45:37.943Z,-1.69
2022-11-21T07:48:09.680Z,-1.64
2022-11-21T07:50:36.294Z,-1.77
2022-11-21T07:53:07.150Z,-1.77
2022-11-21T07:55:41.374Z,-1.74
2022-11-21T07:58:10.000Z,-1.83
2022-11-21T08:00:37.988Z,-1.78
2022-11-21T08:03:05.730Z,-1.76
2022-11-21T08:05:32.396Z,-1.81
2022-11-21T08:07:59.374Z,-1.75
2022-11-21T08:10:29.625Z,-1.71
2022-11-21T08:12:56.155Z,-1.70
2022-11-21T08:15:22.820Z,-1.86
2022-11-21T08:17:49.352Z,-1.86
2022-11-21T08:20:16.119Z,-1.94
2022-11-21T08:22:43.609Z,-1.93
2022-11-21T08:25:10.642Z,-1.83
2022-11-21T08:27:38.639Z,-1.89
2022-11-21T08:30:11.196Z,-1.85
2022-11-21T08:32:37.877Z,-1.71
2022-11-21T08:35:04.719Z,-1.69
2022-11-21T08:37:34.914Z,-1.71
2022-11-21T08:40:02.353Z,-1.67
2022-11-21T08:42:36.113Z,-1.69
2022-11-21T08:45:02.734Z,-1.55
2022-11-21T08:47:35.548Z,-1.30
2022-11-21T08:50:11.031Z,-1.20
2022-11-21T08:52:37.574Z,-0.99
2022-11-21T08:55:04.427Z,-0.82
2022-11-21T08:57:32.339Z,-0.90
2022-11-21T08:59:59.261Z,-0.94
2022-11-21T09:02:26.248Z,-0.90
2022-11-21T09:04:53.460Z,-1.26
2022-11-21T09:07:33.117Z,-1.30
2022-11-21T09:09:59.610Z,-1.22
2022-11-21T09:12:27.451Z,-1.28
2022-11-21T09:15:12.777Z,-1.32
2022-11-21T09:18:02.113Z,-1.38
2022-11-21T09:20:40.414Z,-1.51
2022-11-21T09:23:18.004Z,-1.49
2022-11-21T09:28:33.171Z,-1.62
2022-11-21T09:31:03.766Z,-1.74
2022-11-21T09:33:30.980Z,-1.73
2022-11-21T09:36:00.772Z,-1.83
2022-11-21T09:38:28.022Z,-1.79
2022-11-21T09:41:53.925Z,-1.97
2022-11-21T09:44:44.963Z,-2.11
2022-11-21T09:47:35.386Z,-2.28
2022-11-21T09:50:43.185Z,-2.29
2022-11-21T09:53:35.430Z,-2.35
2022-11-21T09:56:25.384Z,-2.36
2022-11-21T09:59:05.977Z,-2.50
2022-11-21T10:01:34.667Z,-2.68
2022-11-21T10:04:04.455Z,-2.66
2022-11-21T10:06:48.772Z,-2.62
2022-11-21T10:09:41.141Z,-2.50
2022-11-21T10:12:38.626Z,-2.44
2022-11-21T10:15:20.271Z,-2.45
2022-11-21T10:18:15.034Z,-2.30
2022-11-21T10:21:03.708Z,-2.10
2022-11-21T10:23:54.965Z,-2.00
2022-11-21T10:26:48.323Z,-1.97
2022-11-21T10:29:38.243Z,-1.68
2022-11-21T10:32:28.392Z,-1.87
2022-11-21T10:34:59.572Z,-1.79
2022-11-21T10:37:40.149Z,-1.89
2022-11-21T10:40:15.568Z,-2.01
2022-11-21T10:43:37.993Z,-1.52
2022-11-21T10:46:05.561Z,-0.84
2022-11-21T10:48:32.009Z,-0.69
2022-11-21T10:51:48.544Z,-0.60
2022-11-21T10:54:35.442Z,-0.21
2022-11-21T10:57:12.108Z,-0.56
2022-11-21T10:59:38.618Z,-1.01
2022-11-21T11:02:14.611Z,-1.55
2022-11-21T11:04:49.037Z,-1.60
2022-11-21T11:07:25.787Z,-1.59
2022-11-21T11:09:53.614Z,-1.69
2022-11-21T11:12:49.805Z,-1.53
2022-11-21T11:15:24.402Z,-1.36
2022-11-21T11:18:16.342Z,-0.96
2022-11-21T11:20:46.425Z,-0.83
2022-11-21T11:23:30.007Z,-0.64
2022-11-21T11:26:00.470Z,-0.69
2022-11-21T11:28:36.244Z,-0.37
2022-11-21T11:31:07.019Z,-0.56
2022-11-21T11:34:01.524Z,-0.42
2022-11-21T11:37:25.351Z,-0.13
2022-11-21T11:40:35.704Z,0.06
2022-11-21T11:43:48.490Z,-0.23
2022-11-21T11:47:10.071Z,-0.46
2022-11-21T11:50:08.717Z,-0.29
2022-11-21T11:52:50.865Z,-0.20
2022-11-21T11:56:21.458Z,-0.08
2022-11-21T11:59:41.067Z,-0.19
2022-11-21T12:02:39.841Z,-0.07
2022-11-21T12:05:20.195Z,-0.47
2022-11-21T12:08:43.469Z,-0.43
2022-11-21T12:11:43.974Z,-0.38
2022-11-21T12:15:09.206Z,-0.23
2022-11-21T12:17:44.927Z,-0.26
2022-11-21T12:20:41.472Z,-0.62
2022-11-21T12:23:12.536Z,-0.90
2022-11-21T12:28:43.905Z,-1.45
2022-11-21T12:31:50.579Z,-1.49
2022-11-21T12:34:37.026Z,-1.49
2022-11-21T12:37:41.399Z,-2.01
2022-11-21T12:40:12.982Z,-2.15
2022-11-21T12:42:55.152Z,-2.14
2022-11-21T12:45:30.074Z,-2.20
2022-11-21T12:49:10.942Z,-2.38
2022-11-21T12:52:20.771Z,-2.38
2022-11-21T12:55:32.220Z,-2.42
2022-11-21T12:58:52.807Z,-2.31
2022-11-21T13:01:59.247Z,-2.32
2022-11-21T13:04:36.433Z,-2.32
2022-11-21T13:07:04.383Z,-2.14
2022-11-21T13:09:41.039Z,-2.07
2022-11-21T13:12:38.178Z,-1.91
2022-11-21T13:15:16.574Z,-1.78
2022-11-21T13:17:49.588Z,-1.82
2022-11-21T13:20:48.259Z,-1.73
2022-11-21T13:23:54.630Z,-1.76
2022-11-21T13:26:47.196Z,-1.78
2022-11-21T13:32:57.107Z,-1.94
2022-11-21T13:39:51.956Z,-2.08
2022-11-21T13:43:09.871Z,-2.01
2022-11-21T13:46:20.729Z,-2.10
2022-11-21T13:49:23.203Z,-2.31
2022-11-21T13:52:34.793Z,-2.35
2022-11-21T13:55:41.085Z,-2.39
2022-11-21T13:58:29.917Z,-2.30
2022-11-21T14:01:40.466Z,-2.35
2022-11-21T14:04:56.247Z,-2.42
2022-11-21T14:07:36.187Z,-2.39
2022-11-21T14:10:04.902Z,-2.40
2022-11-21T14:12:48.673Z,-2.44
2022-11-21T14:15:21.228Z,-2.46
2022-11-21T14:17:58.860Z,-2.27
2022-11-21T14:20:56.941Z,-2.35
2022-11-21T14:23:29.433Z,-2.33
2022-11-21T14:26:04.506Z,-2.20
2022-11-21T14:28:34.343Z,-2.16
2022-11-21T14:32:04.244Z,-2.09
2022-11-21T14:34:34.386Z,-2.22
2022-11-21T14:37:05.147Z,-2.18
2022-11-21T14:39:40.941Z,-2.32
2022-11-21T14:42:16.798Z,-2.33
2022-11-21T14:44:46.207Z,-2.27
2022-11-21T14:47:26.892Z,-2.41
2022-11-21T14:49:55.435Z,-2.22
2022-11-21T14:52:30.329Z,-2.39
2022-11-21T14:55:28.576Z,-2.44
2022-11-21T14:57:46.293Z,-2.35
2022-11-21T15:00:36.067Z,-2.32
2022-11-21T15:03:47.593Z,-2.39
2022-11-21T15:06:15.172Z,-2.43
2022-11-21T15:11:39.505Z,-2.37
2022-11-21T15:14:22.336Z,-2.39
2022-11-21T15:17:08.508Z,-2.46
2022-11-21T15:19:42.861Z,-2.49
2022-11-21T15:22:37.848Z,-2.42
2022-11-21T15:25:25.344Z,-2.40
2022-11-21T15:28:09.371Z,-2.38
2022-11-21T15:30:38.014Z,-2.46
2022-11-21T15:33:07.766Z,-2.39
2022-11-21T15:36:24.785Z,-2.31
2022-11-21T15:39:21.013Z,-2.41
2022-11-21T15:41:48.833Z,-2.33
2022-11-21T15:45:09.802Z,-2.33
2022-11-21T15:47:40.959Z,-2.40
2022-11-21T15:50:07.770Z,-2.41
2022-11-21T15:52:55.930Z,-2.36
2022-11-21T15:55:48.068Z,-2.33
2022-11-21T15:58:19.163Z,-2.38
2022-11-21T16:00:50.362Z,-2.36
2022-11-21T16:03:22.711Z,-2.33
2022-11-21T16:05:55.692Z,-2.30
2022-11-21T16:08:22.316Z,-2.31
2022-11-21T16:10:50.192Z,-2.30
2022-11-21T16:13:22.445Z,-2.22
2022-11-21T16:15:49.589Z,-2.29
2022-11-21T16:18:16.473Z,-2.29
2022-11-21T16:20:50.663Z,-2.31
2022-11-21T16:23:17.593Z,-2.27
2022-11-21T16:25:56.881Z,-2.29
2022-11-21T16:28:24.767Z,-2.20
2022-11-21T16:30:59.000Z,-2.15
2022-11-21T16:33:27.485Z,-2.07
2022-11-21T16:35:59.804Z,-2.09
2022-11-21T16:38:27.809Z,-2.09
2022-11-21T16:41:00.462Z,-2.10
2022-11-21T16:43:31.548Z,-2.19
2022-11-21T16:46:12.413Z,-2.15
2022-11-21T16:48:39.233Z,-2.14
2022-11-21T16:51:13.759Z,-2.13
2022-11-21T16:53:42.726Z,-2.14
2022-11-21T16:56:10.238Z,-2.06
2022-11-21T16:58:37.343Z,-2.10
2022-11-21T17:01:15.901Z,-2.11
2022-11-21T17:03:44.099Z,-2.13
2022-11-21T17:06:17.488Z,-2.16
2022-11-21T17:08:44.814Z,-2.22
2022-11-21T17:11:18.050Z,-2.28
2022-11-21T17:13:47.129Z,-2.29
2022-11-21T17:16:15.324Z,-2.19
2022-11-21T17:18:43.342Z,-2.22
2022-11-21T17:21:34.337Z,-2.18
2022-11-21T17:24:01.139Z,-2.18
2022-11-21T17:27:09.692Z,-2.16
2022-11-21T17:29:36.408Z,-2.11
2022-11-21T17:32:04.299Z,-2.06
2022-11-21T17:34:33.397Z,-1.94
2022-11-21T17:37:00.458Z,-1.87
2022-11-21T17:39:35.558Z,-1.79
2022-11-21T17:42:02.481Z,-1.74
2022-11-21T17:44:35.836Z,-1.79
2022-11-21T17:47:02.314Z,-1.83
2022-11-21T17:49:38.598Z,-1.89
2022-11-21T17:52:06.773Z,-2.05
2022-11-21T17:54:33.342Z,-1.97
2022-11-21T17:57:01.430Z,-1.89
2022-11-21T17:59:28.383Z,-1.94
2022-11-21T18:01:55.773Z,-1.84
2022-11-21T18:04:23.151Z,-1.75
2022-11-21T18:06:51.067Z,-1.77
2022-11-21T18:09:18.920Z,-1.81
2022-11-21T18:11:46.263Z,-1.82
2022-11-21T18:14:15.914Z,-1.85
2022-11-21T18:16:47.587Z,-1.96
2022-11-21T18:19:19.298Z,-2.06
2022-11-21T18:21:46.181Z,-2.05
2022-11-21T18:24:12.602Z,-2.00
2022-11-21T18:26:39.310Z,-1.95
2022-11-21T18:31:56.499Z,-1.93
2022-11-21T18:34:22.979Z,-1.87
2022-11-21T18:36:49.429Z,-1.96
2022-11-21T18:39:16.043Z,-2.01
2022-11-21T18:41:43.194Z,-2.09
2022-11-21T18:44:10.060Z,-2.06
2022-11-21T18:46:37.267Z,-2.03
2022-11-21T18:49:06.970Z,-1.97
2022-11-21T18:51:35.063Z,-1.89
2022-11-21T18:54:05.351Z,-1.77
2022-11-21T18:56:32.141Z,-1.73
2022-11-21T18:59:00.300Z,-1.75
2022-11-21T19:01:29.568Z,-1.77
2022-11-21T19:03:56.468Z,-1.80
2022-11-21T19:06:24.262Z,-1.86
2022-11-21T19:08:54.671Z,-1.67
2022-11-21T19:11:24.751Z,-1.64
2022-11-21T19:13:53.711Z,-1.59
2022-11-21T19:16:27.270Z,-1.63
2022-11-21T19:19:34.187Z,-1.68
2022-11-21T19:22:10.818Z,-1.73
2022-11-21T19:24:37.350Z,-1.77
2022-11-21T19:27:07.285Z,-1.69
2022-11-21T19:33:21.683Z,-1.55
2022-11-21T19:35:50.557Z,-1.48
2022-11-21T19:38:17.866Z,-1.44
2022-11-21T19:41:08.066Z,-1.50
2022-11-21T19:44:02.981Z,-1.48
2022-11-21T19:46:55.445Z,-1.33
2022-11-21T19:49:28.775Z,-1.32
2022-11-21T19:51:55.794Z,-1.27
2022-11-21T19:54:23.817Z,-1.28
2022-11-21T19:56:50.801Z,-1.24
2022-11-21T19:59:17.461Z,-1.35
2022-11-21T20:01:49.488Z,-1.20
2022-11-21T20:04:19.024Z,-1.10
2022-11-21T20:06:46.274Z,-1.14
2022-11-21T20:09:16.081Z,-1.19
2022-11-21T20:11:55.856Z,-1.41
2022-11-21T20:14:25.804Z,-1.64
2022-11-21T20:16:53.212Z,-1.67
2022-11-21T20:19:22.525Z,-1.72
2022-11-21T20:21:52.979Z,-1.93
2022-11-21T20:24:28.749Z,-1.75
2022-11-21T20:26:59.378Z,-2.02
2022-11-21T20:30:23.198Z,-1.57
2022-11-21T20:32:53.324Z,-1.34
2022-11-21T20:35:19.789Z,-1.34
2022-11-21T20:37:46.651Z,-1.36
2022-11-21T20:40:15.335Z,-1.39
2022-11-21T20:42:42.223Z,-1.36
2022-11-21T20:46:06.464Z,-1.30
2022-11-21T20:47:55.504Z,-1.45
2022-11-21T20:51:01.357Z,-1.65
2022-11-21T20:53:50.920Z,-1.35
2022-11-21T20:56:10.939Z,-1.22
2022-11-21T20:58:39.289Z,-1.35
2022-11-21T21:01:06.908Z,-1.32
2022-11-21T21:03:35.531Z,-1.57
2022-11-21T21:06:07.143Z,-1.61
2022-11-21T21:08:34.778Z,-1.44
2022-11-21T21:11:06.666Z,-1.56
2022-11-21T21:13:34.407Z,-1.22
2022-11-21T21:16:24.061Z,-1.27
2022-11-21T21:18:53.841Z,-0.99
2022-11-21T21:21:28.124Z,-1.10
2022-11-21T21:23:55.822Z,-1.20
2022-11-21T21:26:25.070Z,-1.13
2022-11-21T21:28:52.496Z,-0.97
2022-11-21T21:31:21.839Z,-1.08
2022-11-21T21:33:48.363Z,-0.95
2022-11-21T21:36:17.845Z,-0.82
2022-11-21T21:38:45.598Z,-0.88
2022-11-21T21:41:13.790Z,-1.20
2022-11-21T21:43:40.904Z,-1.07
2022-11-21T21:46:10.769Z,-1.10
2022-11-21T21:48:38.124Z,-1.36
2022-11-21T21:51:06.139Z,-1.37
2022-11-21T21:53:36.107Z,-1.06
2022-11-21T21:56:02.882Z,-0.84
2022-11-21T21:58:29.945Z,-0.96
2022-11-21T22:01:27.325Z,-1.03
2022-11-21T22:04:01.903Z,-0.99
2022-11-21T22:06:29.367Z,-0.94
2022-11-21T22:08:56.267Z,-1.02
2022-11-21T22:11:24.863Z,-1.30
2022-11-21T22:14:00.568Z,-1.32
2022-11-21T22:16:27.723Z,-1.25
2022-11-21T22:18:56.336Z,-1.27
2022-11-21T22:21:35.716Z,-1.34
2022-11-21T22:26:52.531Z,-0.78
2022-11-21T22:29:20.321Z,-0.64
2022-11-21T22:31:51.482Z,-0.70
2022-11-21T22:34:18.067Z,-0.72
2022-11-21T22:36:44.817Z,-0.83
2022-11-21T22:39:11.287Z,-0.90
2022-11-21T22:41:37.813Z,-0.84
2022-11-21T22:44:04.405Z,-0.97
2022-11-21T22:46:31.517Z,-1.08
2022-11-21T22:48:58.486Z,-1.22
2022-11-21T22:51:27.455Z,-1.38
2022-11-21T22:53:53.952Z,-1.46
2022-11-21T22:56:28.125Z,-1.45
2022-11-21T22:58:54.835Z,-1.41
2022-11-21T23:01:23.967Z,-1.37
2022-11-21T23:03:50.937Z,-1.38
2022-11-21T23:06:28.235Z,-1.31
2022-11-21T23:08:56.921Z,-1.38
2022-11-21T23:11:28.388Z,-1.27
2022-11-21T23:14:02.849Z,-1.21
2022-11-21T23:16:29.506Z,-1.18
2022-11-21T23:19:02.531Z,-1.32
2022-11-21T23:21:30.329Z,-1.24
2022-11-21T23:23:56.917Z,-1.31
2022-11-21T23:26:23.428Z,-1.23
2022-11-21T23:28:56.831Z,-1.24
2022-11-21T23:31:25.493Z,-1.50
2022-11-21T23:33:53.445Z,-1.48
2022-11-21T23:36:26.061Z,-1.55
2022-11-21T23:38:52.646Z,-1.58
2022-11-21T23:41:20.523Z,-1.62
2022-11-21T23:43:47.052Z,-1.58
2022-11-21T23:46:18.055Z,-1.80
2022-11-21T23:48:44.729Z,-1.81
2022-11-21T23:51:13.473Z,-1.62
2022-11-21T23:53:43.187Z,-1.60
2022-11-21T23:56:09.723Z,-1.64
2022-11-21T23:58:39.756Z,-1.62
